sensor_id;sensor_type;location;lat;lon;timestamp;pressure;altitude;pressure_sealevel;temperature;humidity
48267;BME280;34088;52.232;5.196;2023-08-12T00:02:22;101783.06;;;20.29;81.00
48267;BME280;34088;52.232;5.196;2023-08-12T00:04:48;101784.09;;;20.26;81.16
48267;BME280;34088;52.232;5.196;2023-08-12T00:07:13;101784.75;;;20.30;81.04
48267;BME280;34088;52.232;5.196;2023-08-12T00:09:38;101778.75;;;20.28;81.27
48267;BME280;34088;52.232;5.196;2023-08-12T00:12:03;101779.00;;;20.23;81.61
48267;BME280;34088;52.232;5.196;2023-08-12T00:14:29;101775.63;;;20.21;81.03
48267;BME280;34088;52.232;5.196;2023-08-12T00:16:54;101779.00;;;20.23;81.64
48267;BME280;34088;52.232;5.196;2023-08-12T00:32:58;101772.97;;;20.07;82.10
48267;BME280;34088;52.232;5.196;2023-08-12T00:35:23;101764.38;;;20.04;81.97
48267;BME280;34088;52.232;5.196;2023-08-12T00:37:49;101766.88;;;19.91;83.35
48267;BME280;34088;52.232;5.196;2023-08-12T00:40:14;101759.44;;;19.98;82.40
48267;BME280;34088;52.232;5.196;2023-08-12T00:42:39;101751.84;;;19.93;82.89
48267;BME280;34088;52.232;5.196;2023-08-12T00:45:09;101755.50;;;19.91;82.90
48267;BME280;34088;52.232;5.196;2023-08-12T00:47:34;101754.47;;;19.93;83.10
48267;BME280;34088;52.232;5.196;2023-08-12T00:50:00;101740.59;;;19.91;82.34
48267;BME280;34088;52.232;5.196;2023-08-12T00:52:25;101748.75;;;19.87;83.70
48267;BME280;34088;52.232;5.196;2023-08-12T00:54:52;101746.28;;;19.84;83.71
48267;BME280;34088;52.232;5.196;2023-08-12T00:57:17;101748.63;;;19.88;83.46
48267;BME280;34088;52.232;5.196;2023-08-12T00:59:43;101735.69;;;19.85;83.71
48267;BME280;34088;52.232;5.196;2023-08-12T01:02:09;101739.69;;;19.77;84.09
48267;BME280;34088;52.232;5.196;2023-08-12T01:04:35;101746.22;;;19.85;83.43
48267;BME280;34088;52.232;5.196;2023-08-12T01:07:01;101748.75;;;19.87;83.84
48267;BME280;34088;52.232;5.196;2023-08-12T01:09:26;101744.91;;;19.92;83.38
48267;BME280;34088;52.232;5.196;2023-08-12T01:12:02;101743.88;;;19.95;83.46
48267;BME280;34088;52.232;5.196;2023-08-12T01:14:29;101736.50;;;20.01;82.73
48267;BME280;34088;52.232;5.196;2023-08-12T01:17:02;101735.06;;;19.96;83.93
48267;BME280;34088;52.232;5.196;2023-08-12T01:21:55;101726.41;;;19.94;83.79
48267;BME280;34088;52.232;5.196;2023-08-12T01:24:24;101723.84;;;19.78;84.93
48267;BME280;34088;52.232;5.196;2023-08-12T01:26:49;101722.19;;;19.91;83.95
48267;BME280;34088;52.232;5.196;2023-08-12T01:29:15;101708.09;;;19.78;84.63
48267;BME280;34088;52.232;5.196;2023-08-12T01:31:46;101714.84;;;19.82;83.94
48267;BME280;34088;52.232;5.196;2023-08-12T01:34:32;101713.50;;;19.75;85.05
48267;BME280;34088;52.232;5.196;2023-08-12T01:37:03;101708.34;;;19.74;84.88
48267;BME280;34088;52.232;5.196;2023-08-12T01:39:30;101704.38;;;19.67;85.62
48267;BME280;34088;52.232;5.196;2023-08-12T01:41:57;101710.13;;;19.73;85.21
48267;BME280;34088;52.232;5.196;2023-08-12T01:44:23;101710.06;;;19.75;85.03
48267;BME280;34088;52.232;5.196;2023-08-12T01:46:49;101701.47;;;19.71;85.38
48267;BME280;34088;52.232;5.196;2023-08-12T01:49:14;101701.38;;;19.73;85.35
48267;BME280;34088;52.232;5.196;2023-08-12T01:51:39;101690.72;;;19.76;85.27
48267;BME280;34088;52.232;5.196;2023-08-12T01:54:05;101685.63;;;19.73;85.19
48267;BME280;34088;52.232;5.196;2023-08-12T01:56:30;101695.31;;;19.72;85.35
48267;BME280;34088;52.232;5.196;2023-08-12T01:58:55;101685.16;;;19.66;85.99
48267;BME280;34088;52.232;5.196;2023-08-12T02:01:20;101682.19;;;19.72;85.69
48267;BME280;34088;52.232;5.196;2023-08-12T02:03:46;101682.91;;;19.74;85.27
48267;BME280;34088;52.232;5.196;2023-08-12T02:06:11;101683.22;;;19.84;85.01
48267;BME280;34088;52.232;5.196;2023-08-12T02:08:36;101683.19;;;19.70;86.05
48267;BME280;34088;52.232;5.196;2023-08-12T02:11:02;101684.03;;;19.70;85.82
48267;BME280;34088;52.232;5.196;2023-08-12T02:13:27;101684.13;;;19.69;86.14
48267;BME280;34088;52.232;5.196;2023-08-12T02:15:53;101676.69;;;19.61;86.48
48267;BME280;34088;52.232;5.196;2023-08-12T02:18:18;101681.59;;;19.67;86.25
48267;BME280;34088;52.232;5.196;2023-08-12T02:20:43;101678.09;;;19.67;86.50
48267;BME280;34088;52.232;5.196;2023-08-12T02:23:08;101666.84;;;19.65;86.95
48267;BME280;34088;52.232;5.196;2023-08-12T02:25:34;101665.06;;;19.65;86.68
48267;BME280;34088;52.232;5.196;2023-08-12T02:27:59;101667.97;;;19.61;87.32
48267;BME280;34088;52.232;5.196;2023-08-12T02:30:24;101669.75;;;19.60;86.92
48267;BME280;34088;52.232;5.196;2023-08-12T02:32:50;101663.38;;;19.64;86.88
48267;BME280;34088;52.232;5.196;2023-08-12T02:35:18;101657.75;;;19.70;86.32
48267;BME280;34088;52.232;5.196;2023-08-12T02:37:43;101656.34;;;19.79;86.05
48267;BME280;34088;52.232;5.196;2023-08-12T02:40:09;101665.19;;;19.78;86.17
48267;BME280;34088;52.232;5.196;2023-08-12T02:42:36;101647.72;;;19.77;86.70
48267;BME280;34088;52.232;5.196;2023-08-12T02:45:01;101652.63;;;19.83;86.12
48267;BME280;34088;52.232;5.196;2023-08-12T02:47:27;101646.69;;;19.79;86.47
48267;BME280;34088;52.232;5.196;2023-08-12T02:49:52;101644.81;;;19.81;86.53
48267;BME280;34088;52.232;5.196;2023-08-12T02:52:18;101644.81;;;19.81;86.91
48267;BME280;34088;52.232;5.196;2023-08-12T02:54:43;101641.09;;;19.85;86.25
48267;BME280;34088;52.232;5.196;2023-08-12T02:57:08;101638.63;;;19.82;87.04
48267;BME280;34088;52.232;5.196;2023-08-12T02:59:34;101640.34;;;19.97;85.95
48267;BME280;34088;52.232;5.196;2023-08-12T03:01:59;101627.28;;;19.96;85.76
48267;BME280;34088;52.232;5.196;2023-08-12T03:04:24;101641.00;;;19.87;87.02
48267;BME280;34088;52.232;5.196;2023-08-12T03:06:50;101630.19;;;19.91;86.74
48267;BME280;34088;52.232;5.196;2023-08-12T03:09:15;101625.31;;;19.85;87.40
48267;BME280;34088;52.232;5.196;2023-08-12T03:11:41;101626.72;;;19.91;87.00
48267;BME280;34088;52.232;5.196;2023-08-12T03:14:06;101622.88;;;19.96;86.57
48267;BME280;34088;52.232;5.196;2023-08-12T03:16:31;101622.13;;;19.94;86.83
48267;BME280;34088;52.232;5.196;2023-08-12T03:18:56;101616.97;;;19.93;87.05
48267;BME280;34088;52.232;5.196;2023-08-12T03:21:22;101618.00;;;19.90;87.10
48267;BME280;34088;52.232;5.196;2023-08-12T03:23:47;101615.81;;;19.97;86.60
48267;BME280;34088;52.232;5.196;2023-08-12T03:26:12;101604.75;;;19.92;87.06
48267;BME280;34088;52.232;5.196;2023-08-12T03:28:39;101604.84;;;20.04;86.21
48267;BME280;34088;52.232;5.196;2023-08-12T03:31:04;101607.69;;;20.01;86.43
48267;BME280;34088;52.232;5.196;2023-08-12T03:33:30;101603.00;;;20.06;86.22
48267;BME280;34088;52.232;5.196;2023-08-12T03:35:56;101608.25;;;20.06;86.35
48267;BME280;34088;52.232;5.196;2023-08-12T03:38:22;101599.03;;;19.99;86.80
48267;BME280;34088;52.232;5.196;2023-08-12T03:40:47;101592.16;;;19.97;87.15
48267;BME280;34088;52.232;5.196;2023-08-12T03:43:12;101582.88;;;20.05;86.41
48267;BME280;34088;52.232;5.196;2023-08-12T03:45:44;101582.72;;;20.08;86.39
48267;BME280;34088;52.232;5.196;2023-08-12T03:48:10;101564.13;;;20.11;86.01
48267;BME280;34088;52.232;5.196;2023-08-12T03:50:37;101561.69;;;20.08;86.22
48267;BME280;34088;52.232;5.196;2023-08-12T03:53:03;101566.66;;;20.13;86.03
48267;BME280;34088;52.232;5.196;2023-08-12T03:55:33;101572.78;;;20.13;86.32
48267;BME280;34088;52.232;5.196;2023-08-12T03:58:01;101577.44;;;20.22;85.19
48267;BME280;34088;52.232;5.196;2023-08-12T04:00:27;101574.09;;;20.20;86.06
48267;BME280;34088;52.232;5.196;2023-08-12T04:02:53;101574.09;;;20.20;86.43
48267;BME280;34088;52.232;5.196;2023-08-12T04:05:18;101571.53;;;20.19;86.01
48267;BME280;34088;52.232;5.196;2023-08-12T04:07:43;101580.75;;;20.12;86.16
48267;BME280;34088;52.232;5.196;2023-08-12T04:10:09;101576.16;;;20.15;86.36
48267;BME280;34088;52.232;5.196;2023-08-12T04:12:34;101574.25;;;20.17;87.03
48267;BME280;34088;52.232;5.196;2023-08-12T04:15:00;101571.84;;;20.14;87.26
48267;BME280;34088;52.232;5.196;2023-08-12T04:17:28;101565.31;;;20.06;87.96
48267;BME280;34088;52.232;5.196;2023-08-12T04:19:53;101560.38;;;20.15;87.14
48267;BME280;34088;52.232;5.196;2023-08-12T04:22:18;101561.41;;;20.13;87.25
48267;BME280;34088;52.232;5.196;2023-08-12T04:24:44;101557.38;;;20.07;87.68
48267;BME280;34088;52.232;5.196;2023-08-12T04:27:09;101561.31;;;20.14;87.23
48267;BME280;34088;52.232;5.196;2023-08-12T04:29:35;101558.59;;;20.16;87.23
48267;BME280;34088;52.232;5.196;2023-08-12T04:32:01;101541.88;;;20.17;87.68
48267;BME280;34088;52.232;5.196;2023-08-12T04:34:26;101541.03;;;20.16;87.65
48267;BME280;34088;52.232;5.196;2023-08-12T04:36:51;101544.97;;;20.09;88.07
48267;BME280;34088;52.232;5.196;2023-08-12T04:39:17;101545.34;;;20.03;88.73
48267;BME280;34088;52.232;5.196;2023-08-12T04:41:42;101540.06;;;20.03;88.26
48267;BME280;34088;52.232;5.196;2023-08-12T04:44:07;101529.84;;;20.13;87.40
48267;BME280;34088;52.232;5.196;2023-08-12T04:46:32;101533.44;;;20.12;88.24
48267;BME280;34088;52.232;5.196;2023-08-12T04:48:58;101518.59;;;20.11;87.87
48267;BME280;34088;52.232;5.196;2023-08-12T04:51:23;101510.41;;;20.01;88.76
48267;BME280;34088;52.232;5.196;2023-08-12T04:53:48;101508.44;;;20.05;88.54
48267;BME280;34088;52.232;5.196;2023-08-12T04:56:13;101512.41;;;20.12;88.34
48267;BME280;34088;52.232;5.196;2023-08-12T04:58:39;101513.44;;;20.09;88.54
48267;BME280;34088;52.232;5.196;2023-08-12T05:01:04;101503.09;;;20.06;88.94
48267;BME280;34088;52.232;5.196;2023-08-12T05:03:29;101502.81;;;20.11;88.45
48267;BME280;34088;52.232;5.196;2023-08-12T05:05:55;101509.38;;;20.18;88.27
48267;BME280;34088;52.232;5.196;2023-08-12T05:08:20;101506.84;;;20.16;88.09
48267;BME280;34088;52.232;5.196;2023-08-12T05:10:49;101501.97;;;20.10;88.99
48267;BME280;34088;52.232;5.196;2023-08-12T05:13:14;101506.41;;;20.10;89.15
48267;BME280;34088;52.232;5.196;2023-08-12T05:15:40;101512.47;;;20.24;88.04
48267;BME280;34088;52.232;5.196;2023-08-12T05:18:05;101499.59;;;20.20;88.35
48267;BME280;34088;52.232;5.196;2023-08-12T05:20:30;101501.97;;;20.10;89.04
48267;BME280;34088;52.232;5.196;2023-08-12T05:22:56;101500.28;;;20.09;89.63
48267;BME280;34088;52.232;5.196;2023-08-12T05:25:21;101492.19;;;20.12;89.00
48267;BME280;34088;52.232;5.196;2023-08-12T05:27:46;101505.81;;;20.19;89.06
48267;BME280;34088;52.232;5.196;2023-08-12T05:30:12;101504.97;;;20.18;88.87
48267;BME280;34088;52.232;5.196;2023-08-12T05:32:37;101501.97;;;20.24;88.21
48267;BME280;34088;52.232;5.196;2023-08-12T05:35:03;101507.84;;;20.28;88.50
48267;BME280;34088;52.232;5.196;2023-08-12T05:37:28;101512.47;;;20.24;88.61
48267;BME280;34088;52.232;5.196;2023-08-12T05:39:53;101505.50;;;20.23;88.97
48267;BME280;34088;52.232;5.196;2023-08-12T05:42:19;101504.78;;;20.21;89.23
48267;BME280;34088;52.232;5.196;2023-08-12T05:44:44;101507.31;;;20.23;88.99
48267;BME280;34088;52.232;5.196;2023-08-12T05:47:09;101500.25;;;20.23;89.28
48267;BME280;34088;52.232;5.196;2023-08-12T05:49:35;101492.75;;;20.17;89.54
48267;BME280;34088;52.232;5.196;2023-08-12T05:52:00;101501.78;;;20.13;90.05
48267;BME280;34088;52.232;5.196;2023-08-12T05:54:25;101506.09;;;20.14;90.13
48267;BME280;34088;52.232;5.196;2023-08-12T05:56:50;101510.41;;;20.15;90.12
48267;BME280;34088;52.232;5.196;2023-08-12T05:59:16;101503.81;;;20.22;89.70
48267;BME280;34088;52.232;5.196;2023-08-12T06:01:41;101501.00;;;20.25;89.36
48267;BME280;34088;52.232;5.196;2023-08-12T06:04:06;101503.44;;;20.28;89.05
48267;BME280;34088;52.232;5.196;2023-08-12T06:06:32;101513.00;;;20.29;89.53
48267;BME280;34088;52.232;5.196;2023-08-12T06:08:57;101515.63;;;20.29;89.54
48267;BME280;34088;52.232;5.196;2023-08-12T06:11:22;101515.75;;;20.28;89.71
48267;BME280;34088;52.232;5.196;2023-08-12T06:13:48;101531.91;;;20.22;90.32
48267;BME280;34088;52.232;5.196;2023-08-12T06:16:13;101536.22;;;20.23;90.73
48267;BME280;34088;52.232;5.196;2023-08-12T06:18:38;101536.63;;;20.17;91.17
48267;BME280;34088;52.232;5.196;2023-08-12T06:21:04;101537.91;;;20.24;90.35
48267;BME280;34088;52.232;5.196;2023-08-12T06:23:29;101544.41;;;20.18;91.19
48267;BME280;34088;52.232;5.196;2023-08-12T06:25:55;101530.88;;;20.10;91.41
48267;BME280;34088;52.232;5.196;2023-08-12T06:28:20;101540.06;;;20.03;91.42
48267;BME280;34088;52.232;5.196;2023-08-12T06:30:46;101526.47;;;19.97;92.18
48267;BME280;34088;52.232;5.196;2023-08-12T06:33:13;101529.72;;;20.00;90.98
48267;BME280;34088;52.232;5.196;2023-08-12T06:35:38;101521.97;;;19.99;90.79
48267;BME280;34088;52.232;5.196;2023-08-12T06:38:05;101516.59;;;20.00;90.50
48267;BME280;34088;52.232;5.196;2023-08-12T06:40:30;101503.09;;;19.92;91.37
48267;BME280;34088;52.232;5.196;2023-08-12T06:42:56;101494.47;;;19.90;91.46
48267;BME280;34088;52.232;5.196;2023-08-12T06:45:21;101498.03;;;19.89;90.94
48267;BME280;34088;52.232;5.196;2023-08-12T06:47:46;101498.56;;;19.94;91.44
48267;BME280;34088;52.232;5.196;2023-08-12T06:50:11;101492.78;;;19.89;91.17
48267;BME280;34088;52.232;5.196;2023-08-12T06:52:37;101491.94;;;19.89;91.67
48267;BME280;34088;52.232;5.196;2023-08-12T06:55:02;101492.66;;;19.91;91.23
48267;BME280;34088;52.232;5.196;2023-08-12T06:57:27;101495.41;;;19.89;91.01
48267;BME280;34088;52.232;5.196;2023-08-12T06:59:53;101488.66;;;19.85;90.44
48267;BME280;34088;52.232;5.196;2023-08-12T07:02:18;101483.50;;;19.84;91.15
48267;BME280;34088;52.232;5.196;2023-08-12T07:04:43;101470.91;;;19.89;89.97
48267;BME280;34088;52.232;5.196;2023-08-12T07:07:09;101472.88;;;19.85;90.77
48267;BME280;34088;52.232;5.196;2023-08-12T07:09:34;101478.31;;;19.82;90.30
48267;BME280;34088;52.232;5.196;2023-08-12T07:11:59;101475.34;;;19.74;91.44
48267;BME280;34088;52.232;5.196;2023-08-12T07:14:26;101464.63;;;19.77;90.57
48267;BME280;34088;52.232;5.196;2023-08-12T07:16:53;101473.19;;;19.81;91.18
48267;BME280;34088;52.232;5.196;2023-08-12T07:19:18;101471.38;;;19.81;90.99
48267;BME280;34088;52.232;5.196;2023-08-12T07:21:43;101469.53;;;19.83;90.80
48267;BME280;34088;52.232;5.196;2023-08-12T07:24:09;101469.31;;;19.86;90.72
48267;BME280;34088;52.232;5.196;2023-08-12T07:26:34;101472.69;;;19.88;90.45
48267;BME280;34088;52.232;5.196;2023-08-12T07:28:59;101475.44;;;19.87;90.81
48267;BME280;34088;52.232;5.196;2023-08-12T07:31:24;101474.19;;;19.92;90.76
48267;BME280;34088;52.232;5.196;2023-08-12T07:33:50;101472.50;;;19.91;90.79
48267;BME280;34088;52.232;5.196;2023-08-12T07:36:15;101466.84;;;19.97;90.87
48267;BME280;34088;52.232;5.196;2023-08-12T07:38:40;101459.78;;;19.98;90.65
48267;BME280;34088;52.232;5.196;2023-08-12T07:41:06;101471.81;;;20.02;90.57
48267;BME280;34088;52.232;5.196;2023-08-12T07:43:31;101466.47;;;20.03;90.54
48267;BME280;34088;52.232;5.196;2023-08-12T07:45:56;101464.13;;;19.99;90.90
48267;BME280;34088;52.232;5.196;2023-08-12T07:48:21;101461.69;;;19.96;90.68
48267;BME280;34088;52.232;5.196;2023-08-12T07:50:47;101465.19;;;19.96;91.28
48267;BME280;34088;52.232;5.196;2023-08-12T07:53:15;101465.81;;;20.00;90.85
48267;BME280;34088;52.232;5.196;2023-08-12T07:55:42;101471.47;;;19.94;91.48
48267;BME280;34088;52.232;5.196;2023-08-12T07:58:07;101469.09;;;20.03;91.04
48267;BME280;34088;52.232;5.196;2023-08-12T08:00:33;101469.41;;;19.99;91.33
48267;BME280;34088;52.232;5.196;2023-08-12T08:02:58;101470.78;;;20.04;91.14
48267;BME280;34088;52.232;5.196;2023-08-12T08:05:23;101466.47;;;20.03;91.53
48267;BME280;34088;52.232;5.196;2023-08-12T08:07:49;101468.16;;;20.04;91.38
48267;BME280;34088;52.232;5.196;2023-08-12T08:10:14;101466.75;;;20.13;90.98
48267;BME280;34088;52.232;5.196;2023-08-12T08:12:39;101470.41;;;20.10;90.97
48267;BME280;34088;52.232;5.196;2023-08-12T08:15:05;101465.91;;;20.12;90.41
48267;BME280;34088;52.232;5.196;2023-08-12T08:17:31;101471.28;;;20.11;91.18
48267;BME280;34088;52.232;5.196;2023-08-12T08:19:56;101470.78;;;20.18;91.13
48267;BME280;34088;52.232;5.196;2023-08-12T08:22:21;101473.94;;;20.23;90.95
48267;BME280;34088;52.232;5.196;2023-08-12T08:24:46;101466.81;;;20.25;90.21
48267;BME280;34088;52.232;5.196;2023-08-12T08:27:12;101468.16;;;20.18;90.36
48267;BME280;34088;52.232;5.196;2023-08-12T08:29:38;101472.66;;;20.16;90.38
48267;BME280;34088;52.232;5.196;2023-08-12T08:32:03;101471.06;;;20.14;90.57
48267;BME280;34088;52.232;5.196;2023-08-12T08:34:29;101490.31;;;20.00;91.71
48267;BME280;34088;52.232;5.196;2023-08-12T08:36:54;101505.19;;;19.73;89.99
48267;BME280;34088;52.232;5.196;2023-08-12T08:39:19;101518.47;;;19.42;90.87
48267;BME280;34088;52.232;5.196;2023-08-12T08:41:47;101532.38;;;19.15;89.07
48267;BME280;34088;52.232;5.196;2023-08-12T08:44:13;101544.34;;;18.75;87.35
48267;BME280;34088;52.232;5.196;2023-08-12T08:46:41;101547.69;;;18.32;87.30
48267;BME280;34088;52.232;5.196;2023-08-12T08:49:08;101547.34;;;17.90;86.92
48267;BME280;34088;52.232;5.196;2023-08-12T08:51:34;101545.66;;;17.89;87.50
48267;BME280;34088;52.232;5.196;2023-08-12T08:54:02;101541.75;;;17.81;87.24
48267;BME280;34088;52.232;5.196;2023-08-12T08:56:29;101544.31;;;17.65;87.61
48267;BME280;34088;52.232;5.196;2023-08-12T08:58:55;101538.69;;;17.73;87.53
48267;BME280;34088;52.232;5.196;2023-08-12T09:01:21;101538.00;;;17.69;87.54
48267;BME280;34088;52.232;5.196;2023-08-12T09:03:49;101526.34;;;17.75;87.81
48267;BME280;34088;52.232;5.196;2023-08-12T09:06:16;101525.63;;;17.88;87.26
48267;BME280;34088;52.232;5.196;2023-08-12T09:08:45;101528.09;;;17.91;87.33
48267;BME280;34088;52.232;5.196;2023-08-12T09:11:13;101519.53;;;17.88;86.89
48267;BME280;34088;52.232;5.196;2023-08-12T09:13:39;101549.28;;;17.87;87.71
48267;BME280;34088;52.232;5.196;2023-08-12T09:16:04;101544.25;;;17.99;88.76
48267;BME280;34088;52.232;5.196;2023-08-12T09:18:29;101557.91;;;17.89;87.55
48267;BME280;34088;52.232;5.196;2023-08-12T09:20:55;101541.75;;;17.96;86.93
48267;BME280;34088;52.232;5.196;2023-08-12T09:23:20;101550.09;;;18.04;87.56
48267;BME280;34088;52.232;5.196;2023-08-12T09:25:46;101538.34;;;18.11;87.00
48267;BME280;34088;52.232;5.196;2023-08-12T09:28:12;101540.81;;;18.30;88.20
48267;BME280;34088;52.232;5.196;2023-08-12T09:30:38;101545.19;;;18.29;87.49
48267;BME280;34088;52.232;5.196;2023-08-12T09:33:08;101548.06;;;18.25;87.19
48267;BME280;34088;52.232;5.196;2023-08-12T09:35:36;101533.75;;;18.15;87.30
48267;BME280;34088;52.232;5.196;2023-08-12T09:38:06;101534.88;;;18.26;88.88
48267;BME280;34088;52.232;5.196;2023-08-12T09:40:34;101535.91;;;18.55;87.45
48267;BME280;34088;52.232;5.196;2023-08-12T09:43:00;101529.31;;;18.48;85.81
48267;BME280;34088;52.232;5.196;2023-08-12T09:45:25;101537.53;;;18.42;85.70
48267;BME280;34088;52.232;5.196;2023-08-12T09:47:52;101539.28;;;18.41;85.17
48267;BME280;34088;52.232;5.196;2023-08-12T09:50:17;101542.84;;;18.40;85.15
48267;BME280;34088;52.232;5.196;2023-08-12T09:52:42;101556.53;;;18.61;86.58
48267;BME280;34088;52.232;5.196;2023-08-12T09:55:10;101563.06;;;18.69;87.01
48267;BME280;34088;52.232;5.196;2023-08-12T09:57:42;101564.44;;;18.45;85.01
48267;BME280;34088;52.232;5.196;2023-08-12T10:00:08;101557.63;;;18.57;85.34
48267;BME280;34088;52.232;5.196;2023-08-12T10:02:40;101567.34;;;18.86;85.68
48267;BME280;34088;52.232;5.196;2023-08-12T10:05:07;101556.91;;;18.84;84.77
48267;BME280;34088;52.232;5.196;2023-08-12T10:07:36;101562.34;;;18.81;85.21
48267;BME280;34088;52.232;5.196;2023-08-12T10:10:01;101565.06;;;19.25;84.74
48267;BME280;34088;52.232;5.196;2023-08-12T10:12:27;101562.94;;;19.45;83.60
48267;BME280;34088;52.232;5.196;2023-08-12T10:14:54;101563.81;;;19.74;82.90
48267;BME280;34088;52.232;5.196;2023-08-12T10:17:20;101554.34;;;19.99;83.64
48267;BME280;34088;52.232;5.196;2023-08-12T10:19:46;101566.41;;;20.44;82.58
48267;BME280;34088;52.232;5.196;2023-08-12T10:22:12;101560.50;;;20.81;82.54
48267;BME280;34088;52.232;5.196;2023-08-12T10:24:42;101545.03;;;20.62;78.56
48267;BME280;34088;52.232;5.196;2023-08-12T10:27:08;101555.06;;;20.43;79.06
48267;BME280;34088;52.232;5.196;2023-08-12T10:29:34;101566.75;;;20.25;79.66
48267;BME280;34088;52.232;5.196;2023-08-12T10:32:00;101556.28;;;20.38;80.45
48267;BME280;34088;52.232;5.196;2023-08-12T10:34:25;101553.72;;;20.50;81.06
48267;BME280;34088;52.232;5.196;2023-08-12T10:36:56;101563.47;;;20.62;79.42
48267;BME280;34088;52.232;5.196;2023-08-12T10:39:25;101566.34;;;20.98;78.53
48267;BME280;34088;52.232;5.196;2023-08-12T10:41:54;101568.25;;;20.96;77.94
48267;BME280;34088;52.232;5.196;2023-08-12T10:44:21;101562.13;;;20.96;76.71
48267;BME280;34088;52.232;5.196;2023-08-12T10:46:50;101558.63;;;21.22;77.63
48267;BME280;34088;52.232;5.196;2023-08-12T10:49:19;101564.00;;;21.45;75.51
48267;BME280;34088;52.232;5.196;2023-08-12T10:51:46;101562.78;;;21.76;75.30
48267;BME280;34088;52.232;5.196;2023-08-12T10:54:26;101567.19;;;21.63;74.61
48267;BME280;34088;52.232;5.196;2023-08-12T10:59:53;101552.31;;;21.37;68.22
48267;BME280;34088;52.232;5.196;2023-08-12T11:02:29;101542.94;;;21.45;68.69
48267;BME280;34088;52.232;5.196;2023-08-12T11:04:59;101553.28;;;21.61;68.05
48267;BME280;34088;52.232;5.196;2023-08-12T11:12:39;101555.59;;;21.65;66.97
48267;BME280;34088;52.232;5.196;2023-08-12T11:15:05;101561.72;;;21.53;65.11
48267;BME280;34088;52.232;5.196;2023-08-12T11:17:45;101553.94;;;21.89;67.83
48267;BME280;34088;52.232;5.196;2023-08-12T11:20:12;101554.22;;;21.97;66.39
48267;BME280;34088;52.232;5.196;2023-08-12T11:22:40;101545.59;;;21.83;64.88
48267;BME280;34088;52.232;5.196;2023-08-12T11:25:08;101547.69;;;21.78;65.82
48267;BME280;34088;52.232;5.196;2023-08-12T11:27:45;101549.28;;;21.80;66.47
48267;BME280;34088;52.232;5.196;2023-08-12T11:30:13;101543.31;;;22.14;67.36
48267;BME280;34088;52.232;5.196;2023-08-12T11:32:41;101538.38;;;22.22;65.55
48267;BME280;34088;52.232;5.196;2023-08-12T11:35:07;101538.81;;;22.40;66.04
48267;BME280;34088;52.232;5.196;2023-08-12T11:37:35;101543.47;;;22.36;64.31
48267;BME280;34088;52.232;5.196;2023-08-12T11:40:01;101533.53;;;22.76;66.82
48267;BME280;34088;52.232;5.196;2023-08-12T11:42:28;101532.19;;;22.70;63.68
48267;BME280;34088;52.232;5.196;2023-08-12T11:44:53;101537.31;;;22.61;64.37
48267;BME280;34088;52.232;5.196;2023-08-12T11:47:19;101545.31;;;22.59;66.69
48267;BME280;34088;52.232;5.196;2023-08-12T11:49:44;101549.66;;;22.60;66.31
48267;BME280;34088;52.232;5.196;2023-08-12T11:52:10;101546.28;;;22.58;64.53
48267;BME280;34088;52.232;5.196;2023-08-12T11:54:36;101538.00;;;22.39;63.84
48267;BME280;34088;52.232;5.196;2023-08-12T11:57:01;101537.97;;;22.52;63.88
48267;BME280;34088;52.232;5.196;2023-08-12T11:59:27;101541.63;;;22.62;62.99
48267;BME280;34088;52.232;5.196;2023-08-12T12:01:54;101536.66;;;22.81;64.33
48267;BME280;34088;52.232;5.196;2023-08-12T12:04:20;101541.03;;;22.93;63.30
48267;BME280;34088;52.232;5.196;2023-08-12T12:06:46;101539.41;;;22.79;60.49
48267;BME280;34088;52.232;5.196;2023-08-12T12:09:13;101543.47;;;22.72;61.35
48267;BME280;34088;52.232;5.196;2023-08-12T12:11:39;101545.50;;;22.92;61.61
48267;BME280;34088;52.232;5.196;2023-08-12T12:14:07;101540.72;;;23.08;60.97
48267;BME280;34088;52.232;5.196;2023-08-12T12:16:37;101552.75;;;23.12;61.91
48267;BME280;34088;52.232;5.196;2023-08-12T12:19:03;101538.25;;;23.18;60.68
48267;BME280;34088;52.232;5.196;2023-08-12T12:21:37;101543.13;;;23.00;59.08
48267;BME280;34088;52.232;5.196;2023-08-12T12:24:03;101542.91;;;23.14;59.17
48267;BME280;34088;52.232;5.196;2023-08-12T12:26:29;101552.97;;;23.33;59.92
48267;BME280;34088;52.232;5.196;2023-08-12T12:28:54;101552.97;;;23.33;58.94
48267;BME280;34088;52.232;5.196;2023-08-12T12:31:19;101556.31;;;23.35;58.34
48267;BME280;34088;52.232;5.196;2023-08-12T12:33:44;101560.25;;;23.18;58.17
48267;BME280;34088;52.232;5.196;2023-08-12T12:36:10;101552.88;;;23.11;58.43
48267;BME280;34088;52.232;5.196;2023-08-12T12:38:35;101549.22;;;23.24;58.58
48267;BME280;34088;52.232;5.196;2023-08-12T12:41:00;101557.22;;;23.46;57.42
48267;BME280;34088;52.232;5.196;2023-08-12T12:43:26;101556.72;;;23.52;56.12
48267;BME280;34088;52.232;5.196;2023-08-12T12:45:51;101560.78;;;23.34;55.80
48267;BME280;34088;52.232;5.196;2023-08-12T12:48:16;101561.56;;;23.69;56.75
48267;BME280;34088;52.232;5.196;2023-08-12T12:50:41;101560.84;;;23.56;56.35
48267;BME280;34088;52.232;5.196;2023-08-12T12:53:07;101567.56;;;23.60;54.32
48267;BME280;34088;52.232;5.196;2023-08-12T12:55:32;101558.94;;;23.80;55.79
48267;BME280;34088;52.232;5.196;2023-08-12T12:57:57;101550.53;;;23.86;54.85
48267;BME280;34088;52.232;5.196;2023-08-12T13:00:23;101550.16;;;23.79;53.50
48267;BME280;34088;52.232;5.196;2023-08-12T13:02:48;101560.72;;;23.68;54.54
48267;BME280;34088;52.232;5.196;2023-08-12T13:05:13;101567.69;;;23.80;54.21
48267;BME280;34088;52.232;5.196;2023-08-12T13:07:38;101555.91;;;23.73;52.00
48267;BME280;34088;52.232;5.196;2023-08-12T13:10:04;101549.78;;;23.62;51.50